createdAt,value
2023-01-21T00:00:10.644Z,72.98
2023-01-21T00:02:13.463Z,72.55
2023-01-21T00:04:16.276Z,73.56
2023-01-21T00:06:18.953Z,72.23
2023-01-21T00:08:21.641Z,73.67
2023-01-21T00:10:24.226Z,73.16
2023-01-21T00:12:26.887Z,73.19
2023-01-21T00:14:32.621Z,73.39
2023-01-21T00:16:35.246Z,73.35
2023-01-21T00:18:37.906Z,73.20
2023-01-21T00:20:40.582Z,73.24
2023-01-21T00:22:43.229Z,73.90
2023-01-21T00:24:45.847Z,72.78
2023-01-21T00:26:48.643Z,72.69
2023-01-21T00:28:51.273Z,72.96
2023-01-21T00:30:58.464Z,73.46
2023-01-21T00:33:01.105Z,72.86
2023-01-21T00:35:04.291Z,73.32
2023-01-21T00:37:08.059Z,73.79
2023-01-21T00:39:10.914Z,73.23
2023-01-21T00:41:14.476Z,73.63
2023-01-21T00:43:17.120Z,73.68
2023-01-21T00:45:19.713Z,73.53
2023-01-21T00:47:22.331Z,73.63
2023-01-21T00:49:24.930Z,74.51
2023-01-21T00:51:28.067Z,74.46
2023-01-21T00:53:34.207Z,74.22
2023-01-21T00:55:36.808Z,73.61
2023-01-21T00:57:39.534Z,74.87
2023-01-21T00:59:42.410Z,74.87
2023-01-21T01:01:45.043Z,74.87
2023-01-21T01:03:49.382Z,74.64
2023-01-21T01:05:52.013Z,73.71
2023-01-21T01:07:54.641Z,74.51
2023-01-21T01:09:57.240Z,74.26
2023-01-21T01:11:59.902Z,75.38
2023-01-21T01:14:03.473Z,75.12
2023-01-21T01:16:07.053Z,75.13
2023-01-21T01:18:10.023Z,74.34
2023-01-21T01:20:12.723Z,74.86
2023-01-21T01:22:15.419Z,75.00
2023-01-21T01:24:18.126Z,74.70
2023-01-21T01:26:21.900Z,75.32
2023-01-21T01:28:24.763Z,75.56
2023-01-21T01:30:27.387Z,75.58
2023-01-21T01:32:30.003Z,75.37
2023-01-21T01:34:32.606Z,75.59
2023-01-21T01:36:35.304Z,74.48
2023-01-21T01:38:37.924Z,75.48
2023-01-21T01:40:40.882Z,74.33
2023-01-21T01:42:43.602Z,74.61
2023-01-21T01:44:55.669Z,74.79
2023-01-21T01:46:59.297Z,75.02
2023-01-21T01:49:16.780Z,74.42
2023-01-21T01:51:26.751Z,75.22
2023-01-21T01:53:31.703Z,75.33
2023-01-21T01:55:37.159Z,74.90
2023-01-21T01:57:43.881Z,75.03
2023-01-21T01:59:48.494Z,75.21
2023-01-21T02:01:51.557Z,75.29
2023-01-21T02:03:59.765Z,75.13
2023-01-21T02:06:02.724Z,75.44
2023-01-21T02:08:06.626Z,75.40
2023-01-21T02:10:13.690Z,75.28
2023-01-21T02:12:18.264Z,75.42
2023-01-21T02:14:20.971Z,75.16
2023-01-21T02:16:41.127Z,75.40
2023-01-21T02:19:00.879Z,75.59
2023-01-21T02:21:09.234Z,75.05
2023-01-21T02:23:37.611Z,75.91
2023-01-21T02:26:21.884Z,75.74
2023-01-21T02:29:02.832Z,75.37
2023-01-21T02:31:32.577Z,75.45
2023-01-21T02:33:53.302Z,75.67
2023-01-21T02:35:55.836Z,74.69
2023-01-21T02:38:13.071Z,75.44
2023-01-21T02:40:24.595Z,75.39
2023-01-21T02:42:30.532Z,75.60
2023-01-21T02:44:54.739Z,75.47
2023-01-21T02:47:07.012Z,75.42
2023-01-21T02:49:38.634Z,75.09
2023-01-21T02:51:47.048Z,75.77
2023-01-21T02:53:49.670Z,75.15
2023-01-21T02:55:53.254Z,75.60
2023-01-21T02:58:07.601Z,74.90
2023-01-21T03:00:15.631Z,75.15
2023-01-21T03:02:36.427Z,74.68
2023-01-21T03:04:48.573Z,74.73
2023-01-21T03:06:59.898Z,74.54
2023-01-21T03:09:22.725Z,74.48
2023-01-21T03:11:25.852Z,74.85
2023-01-21T03:13:57.586Z,74.52
2023-01-21T03:16:18.923Z,73.79
2023-01-21T03:18:27.403Z,74.50
2023-01-21T03:20:37.885Z,74.20
2023-01-21T03:22:40.788Z,74.07
2023-01-21T03:24:48.514Z,73.66
2023-01-21T03:26:53.934Z,73.61
2023-01-21T03:29:03.155Z,73.83
2023-01-21T03:31:19.082Z,73.27
2023-01-21T03:33:23.235Z,72.90
2023-01-21T03:35:29.825Z,73.00
2023-01-21T03:37:47.093Z,73.37
2023-01-21T03:40:05.463Z,72.25
2023-01-21T03:42:09.394Z,72.88
2023-01-21T03:44:12.232Z,72.31
2023-01-21T03:46:32.776Z,72.50
2023-01-21T03:48:35.511Z,72.28
2023-01-21T03:50:44.035Z,72.66
2023-01-21T03:52:47.019Z,72.43
2023-01-21T03:54:49.822Z,72.34
2023-01-21T03:56:52.571Z,71.91
2023-01-21T03:58:55.956Z,72.25
2023-01-21T04:00:58.690Z,71.60
2023-01-21T04:03:01.338Z,71.45
2023-01-21T04:05:04.531Z,71.45
2023-01-21T04:07:07.315Z,71.07
2023-01-21T04:09:11.332Z,71.29
2023-01-21T04:11:14.395Z,71.66
2023-01-21T04:13:17.056Z,72.42
2023-01-21T04:15:19.640Z,71.28
2023-01-21T04:17:22.315Z,71.28
2023-01-21T04:19:24.974Z,71.44
2023-01-21T04:21:27.578Z,71.66
2023-01-21T04:23:30.213Z,71.69
2023-01-21T04:25:32.800Z,71.57
2023-01-21T04:27:35.448Z,71.26
2023-01-21T04:29:38.076Z,71.59
2023-01-21T04:31:40.736Z,71.98
2023-01-21T04:33:43.477Z,71.87
2023-01-21T04:35:46.066Z,71.28
2023-01-21T04:37:48.651Z,72.05
2023-01-21T04:39:51.272Z,70.88
2023-01-21T04:41:53.861Z,70.93
2023-01-21T04:43:56.616Z,70.96
2023-01-21T04:45:59.334Z,71.24
2023-01-21T04:48:02.055Z,71.11
2023-01-21T04:50:05.288Z,70.54
2023-01-21T04:52:07.927Z,70.50
2023-01-21T04:54:11.634Z,69.96
2023-01-21T04:56:14.263Z,69.97
2023-01-21T04:58:16.854Z,70.17
2023-01-21T05:00:19.821Z,70.82
2023-01-21T05:02:22.541Z,71.49
2023-01-21T05:04:25.215Z,70.44
2023-01-21T05:06:27.808Z,71.10
2023-01-21T05:08:30.628Z,70.77
2023-01-21T05:10:33.236Z,70.92
2023-01-21T05:12:35.797Z,71.18
2023-01-21T05:14:38.413Z,70.34
2023-01-21T05:16:41.080Z,71.36
2023-01-21T05:18:46.827Z,71.11
2023-01-21T05:20:49.471Z,70.67
2023-01-21T05:22:52.186Z,70.80
2023-01-21T05:24:54.821Z,70.35
2023-01-21T05:26:57.556Z,71.00
2023-01-21T05:29:00.245Z,69.97
2023-01-21T05:31:04.464Z,70.43
2023-01-21T05:33:07.326Z,69.77
2023-01-21T05:35:12.273Z,70.04
2023-01-21T05:37:15.021Z,69.94
2023-01-21T05:39:17.744Z,70.29
2023-01-21T05:41:20.409Z,70.15
2023-01-21T05:43:22.991Z,69.26
2023-01-21T05:45:25.958Z,70.19
2023-01-21T05:47:28.538Z,70.48
2023-01-21T05:49:31.246Z,69.98
2023-01-21T05:51:33.961Z,69.42
2023-01-21T05:53:36.794Z,68.92
2023-01-21T05:55:39.877Z,69.82
2023-01-21T05:57:42.449Z,69.88
2023-01-21T05:59:45.095Z,70.05
2023-01-21T06:01:47.675Z,69.13
2023-01-21T06:03:50.388Z,69.17
2023-01-21T06:05:53.032Z,69.42
2023-01-21T06:07:56.390Z,68.30
2023-01-21T06:09:59.042Z,67.95
2023-01-21T06:12:01.597Z,68.04
2023-01-21T06:14:04.232Z,67.17
2023-01-21T06:16:07.279Z,68.10
2023-01-21T06:18:10.007Z,67.56
2023-01-21T06:20:13.089Z,67.56
2023-01-21T06:22:17.037Z,66.91
2023-01-21T06:24:19.672Z,66.56
2023-01-21T06:26:22.348Z,66.28
2023-01-21T06:28:25.100Z,66.34
2023-01-21T06:30:28.014Z,66.03
2023-01-21T06:32:30.595Z,66.43
2023-01-21T06:34:33.197Z,65.79
2023-01-21T06:36:36.578Z,64.68
2023-01-21T06:38:39.338Z,64.45
2023-01-21T06:40:43.406Z,64.27
2023-01-21T06:42:47.966Z,65.02
2023-01-21T06:44:50.611Z,64.65
2023-01-21T06:47:00.747Z,63.92
2023-01-21T06:49:04.197Z,64.63
2023-01-21T06:51:07.177Z,64.63
2023-01-21T06:53:10.030Z,64.28
2023-01-21T06:55:14.925Z,63.58
2023-01-21T06:57:18.369Z,63.36
2023-01-21T06:59:20.964Z,63.88
2023-01-21T07:01:23.793Z,63.91
2023-01-21T07:03:26.933Z,63.57
2023-01-21T07:05:29.631Z,64.04
2023-01-21T07:07:32.420Z,62.76
2023-01-21T07:09:35.350Z,63.06
2023-01-21T07:11:38.176Z,63.21
2023-01-21T07:13:40.811Z,63.55
2023-01-21T07:15:43.493Z,63.92
2023-01-21T07:17:46.136Z,63.33
2023-01-21T07:19:48.813Z,63.20
2023-01-21T07:21:51.503Z,62.96
2023-01-21T07:23:55.592Z,62.84
2023-01-21T07:25:58.264Z,63.02
2023-01-21T07:28:00.861Z,62.86
2023-01-21T07:30:04.017Z,63.38
2023-01-21T07:32:06.822Z,62.45
2023-01-21T07:34:09.494Z,61.57
2023-01-21T07:36:12.205Z,61.32
2023-01-21T07:38:14.806Z,61.41
2023-01-21T07:40:17.657Z,61.95
2023-01-21T07:42:20.320Z,61.72
2023-01-21T07:44:23.004Z,62.22
2023-01-21T07:46:27.077Z,61.05
2023-01-21T07:48:29.787Z,61.68
2023-01-21T07:50:32.385Z,61.49
2023-01-21T07:52:35.313Z,61.00
2023-01-21T07:54:37.934Z,60.84
2023-01-21T07:56:40.775Z,60.54
2023-01-21T07:58:43.490Z,60.34
2023-01-21T08:00:46.095Z,59.95
2023-01-21T08:02:54.147Z,60.92
2023-01-21T08:04:56.797Z,60.42
2023-01-21T08:07:00.103Z,60.30
2023-01-21T08:09:02.709Z,60.47
2023-01-21T08:11:05.515Z,61.00
2023-01-21T08:13:08.229Z,60.84
2023-01-21T08:15:12.082Z,61.11
2023-01-21T08:17:14.949Z,60.45
2023-01-21T08:19:17.539Z,61.53
2023-01-21T08:21:21.122Z,60.51
2023-01-21T08:23:24.263Z,60.45
2023-01-21T08:25:27.379Z,60.72
2023-01-21T08:27:30.613Z,60.90
2023-01-21T08:29:33.279Z,60.79
2023-01-21T08:31:36.212Z,59.58
2023-01-21T08:33:39.332Z,59.16
2023-01-21T08:35:42.283Z,60.01
2023-01-21T08:37:44.907Z,60.46
2023-01-21T08:39:47.487Z,60.03
2023-01-21T08:41:50.189Z,60.37
2023-01-21T08:43:52.852Z,60.56
2023-01-21T08:46:01.660Z,59.45
2023-01-21T08:48:04.650Z,59.88
2023-01-21T08:50:08.069Z,60.00
2023-01-21T08:52:11.137Z,60.60
2023-01-21T08:54:13.941Z,58.59
2023-01-21T08:56:17.000Z,59.71
2023-01-21T08:58:19.617Z,60.26
2023-01-21T09:00:23.651Z,59.49
2023-01-21T09:02:26.736Z,59.45
2023-01-21T09:04:29.529Z,58.42
2023-01-21T09:06:32.399Z,59.39
2023-01-21T09:08:36.841Z,58.84
2023-01-21T09:10:58.028Z,58.78
2023-01-21T09:13:07.778Z,59.09
2023-01-21T09:15:10.732Z,58.67
2023-01-21T09:17:13.335Z,59.24
2023-01-21T09:19:16.747Z,59.22
2023-01-21T09:21:19.873Z,59.40
2023-01-21T09:23:25.407Z,59.95
2023-01-21T09:25:28.310Z,59.51
2023-01-21T09:27:31.271Z,58.64
2023-01-21T09:29:34.623Z,58.99
2023-01-21T09:31:37.752Z,59.17
2023-01-21T09:33:44.606Z,58.61
2023-01-21T09:35:56.667Z,58.80
2023-01-21T09:37:59.282Z,58.29
2023-01-21T09:40:02.283Z,58.67
2023-01-21T09:42:06.236Z,58.85
2023-01-21T09:44:45.055Z,58.44
2023-01-21T09:47:06.479Z,58.63
2023-01-21T09:49:17.360Z,58.46
2023-01-21T09:51:39.363Z,58.23
2023-01-21T09:53:55.283Z,57.83
2023-01-21T09:56:02.349Z,58.12
2023-01-21T09:58:37.606Z,57.69
2023-01-21T10:00:46.431Z,58.57
2023-01-21T10:03:16.536Z,58.19
2023-01-21T10:05:25.051Z,58.40
2023-01-21T10:07:39.159Z,58.23
2023-01-21T10:09:47.929Z,57.96
2023-01-21T10:12:05.403Z,58.48
2023-01-21T10:14:40.614Z,58.29
2023-01-21T10:17:01.290Z,58.30
2023-01-21T10:19:05.855Z,58.33
2023-01-21T10:21:25.066Z,58.38
2023-01-21T10:23:39.751Z,58.23
2023-01-21T10:25:50.624Z,59.66
2023-01-21T10:27:54.793Z,59.42
2023-01-21T10:30:22.886Z,60.40
2023-01-21T10:32:27.988Z,59.37
2023-01-21T10:34:33.037Z,59.99
2023-01-21T10:36:55.113Z,59.47
2023-01-21T10:39:22.552Z,59.84
2023-01-21T10:41:33.285Z,59.75
2023-01-21T10:44:03.255Z,60.82
2023-01-21T10:46:23.962Z,60.34
2023-01-21T10:48:29.351Z,60.77
2023-01-21T10:50:41.113Z,59.94
2023-01-21T10:53:06.950Z,60.22
2023-01-21T10:55:35.631Z,60.26
2023-01-21T10:57:59.226Z,59.95
2023-01-21T11:00:04.441Z,60.42
2023-01-21T11:02:08.204Z,60.22
2023-01-21T11:04:16.874Z,60.46
2023-01-21T11:06:21.756Z,60.10
2023-01-21T11:08:27.455Z,60.48
2023-01-21T11:10:30.653Z,60.66
2023-01-21T11:12:33.355Z,60.98
2023-01-21T11:14:35.950Z,60.91
2023-01-21T11:16:49.963Z,60.36
2023-01-21T11:18:52.577Z,60.32
2023-01-21T11:21:01.101Z,61.07
2023-01-21T11:23:23.219Z,61.66
2023-01-21T11:25:28.740Z,61.19
2023-01-21T11:27:40.131Z,61.06
2023-01-21T11:29:42.894Z,61.06
2023-01-21T11:31:49.023Z,61.56
2023-01-21T11:33:52.910Z,60.94
2023-01-21T11:35:56.701Z,61.53
2023-01-21T11:37:59.369Z,61.48
2023-01-21T11:40:14.431Z,61.32
2023-01-21T11:42:19.370Z,61.66
2023-01-21T11:44:23.240Z,61.24
2023-01-21T11:46:30.105Z,62.00
2023-01-21T11:48:32.791Z,62.13
2023-01-21T11:50:40.187Z,62.21
2023-01-21T11:52:42.897Z,61.87
2023-01-21T11:54:46.741Z,62.09
2023-01-21T11:57:02.591Z,62.38
2023-01-21T11:59:42.030Z,61.44
2023-01-21T12:01:53.367Z,61.84
2023-01-21T12:04:01.160Z,61.87
2023-01-21T12:06:05.371Z,62.13
2023-01-21T12:08:08.311Z,62.17
2023-01-21T12:10:13.610Z,61.48
2023-01-21T12:12:31.287Z,62.05
2023-01-21T12:14:59.258Z,61.86
2023-01-21T12:17:16.104Z,61.52
2023-01-21T12:19:42.732Z,62.51
2023-01-21T12:22:03.269Z,62.03
2023-01-21T12:24:08.339Z,62.63
2023-01-21T12:26:38.085Z,62.26
2023-01-21T12:28:49.216Z,63.11
2023-01-21T12:31:08.057Z,62.72
2023-01-21T12:33:30.867Z,62.73
2023-01-21T12:35:43.522Z,62.38
2023-01-21T12:38:15.239Z,62.75
2023-01-21T12:40:27.612Z,62.84
2023-01-21T12:42:37.826Z,62.93
2023-01-21T12:44:44.823Z,63.28
2023-01-21T12:46:51.331Z,63.42
2023-01-21T12:49:05.100Z,63.29
2023-01-21T12:51:13.785Z,64.50
2023-01-21T12:53:35.804Z,65.14
2023-01-21T12:55:57.265Z,64.63
2023-01-21T12:58:09.269Z,63.93
2023-01-21T13:00:22.177Z,65.74
2023-01-21T13:02:43.631Z,65.37
2023-01-21T13:04:55.745Z,66.70
2023-01-21T13:06:58.149Z,65.28
2023-01-21T13:09:05.028Z,64.73
2023-01-21T13:11:23.931Z,66.23
2023-01-21T13:13:35.664Z,65.76
2023-01-21T13:15:41.615Z,65.79
2023-01-21T13:17:49.834Z,65.71
2023-01-21T13:19:52.560Z,66.62
2023-01-21T13:22:16.214Z,66.84
2023-01-21T13:24:46.736Z,66.45
2023-01-21T13:27:15.656Z,65.88
2023-01-21T13:29:39.972Z,67.72
2023-01-21T13:32:13.411Z,67.31
2023-01-21T13:34:34.222Z,67.13
2023-01-21T13:37:02.633Z,67.42
2023-01-21T13:39:21.924Z,66.76
2023-01-21T13:41:51.114Z,66.97
2023-01-21T13:44:13.782Z,67.76
2023-01-21T13:46:22.359Z,67.54
2023-01-21T13:48:52.289Z,67.72
2023-01-21T13:51:09.674Z,67.02
2023-01-21T13:53:30.548Z,67.74
2023-01-21T13:55:55.799Z,67.51
2023-01-21T13:58:04.837Z,67.05
2023-01-21T14:00:16.402Z,67.52
2023-01-21T14:02:31.996Z,68.06
2023-01-21T14:04:44.395Z,66.96
2023-01-21T14:07:22.544Z,66.73
2023-01-21T14:09:38.438Z,67.19
2023-01-21T14:11:53.775Z,66.50
2023-01-21T14:14:15.241Z,66.85
2023-01-21T14:16:46.406Z,66.89
2023-01-21T14:18:52.161Z,66.81
2023-01-21T14:21:15.570Z,67.01
2023-01-21T14:23:50.211Z,67.92
2023-01-21T14:26:14.517Z,67.40
2023-01-21T14:28:47.440Z,66.98
2023-01-21T14:30:59.562Z,67.07
2023-01-21T14:33:11.169Z,67.10
2023-01-21T14:35:33.159Z,68.02
2023-01-21T14:37:44.662Z,67.33
2023-01-21T14:40:07.504Z,67.47
2023-01-21T14:42:12.914Z,67.09
2023-01-21T14:44:39.341Z,67.73
2023-01-21T14:46:41.940Z,67.45
2023-01-21T14:49:00.434Z,67.76
2023-01-21T14:51:06.078Z,68.48
2023-01-21T14:53:48.365Z,67.14
2023-01-21T14:56:19.828Z,67.58
2023-01-21T14:58:26.742Z,67.48
2023-01-21T15:00:35.363Z,67.04
2023-01-21T15:02:44.990Z,67.84
2023-01-21T15:05:00.574Z,67.62
2023-01-21T15:07:09.782Z,67.49
2023-01-21T15:09:24.018Z,68.27
2023-01-21T15:11:32.185Z,67.53
2023-01-21T15:13:35.036Z,68.15
2023-01-21T15:16:01.505Z,67.22
2023-01-21T15:18:26.456Z,66.85
2023-01-21T15:20:39.846Z,66.77
2023-01-21T15:22:46.850Z,67.11
2023-01-21T15:25:12.588Z,67.49
2023-01-21T15:27:33.910Z,66.91
2023-01-21T15:29:38.778Z,67.55
2023-01-21T15:31:44.852Z,67.12
2023-01-21T15:34:07.694Z,67.23
2023-01-21T15:36:38.066Z,67.45
2023-01-21T15:38:41.682Z,67.46
2023-01-21T15:40:58.179Z,66.96
2023-01-21T15:43:02.987Z,67.41
2023-01-21T15:45:13.077Z,66.85
2023-01-21T15:47:53.086Z,67.89
2023-01-21T15:50:13.827Z,67.81
2023-01-21T15:52:25.349Z,67.17
2023-01-21T15:54:41.540Z,67.24
2023-01-21T15:56:45.235Z,67.67
2023-01-21T15:59:24.524Z,67.02
2023-01-21T16:01:33.784Z,67.51
2023-01-21T16:03:45.715Z,66.82
2023-01-21T16:05:53.939Z,66.84
2023-01-21T16:08:02.062Z,68.17
2023-01-21T16:10:11.060Z,67.78
2023-01-21T16:12:30.079Z,68.25
2023-01-21T16:14:56.126Z,67.71
2023-01-21T16:17:13.655Z,67.62
2023-01-21T16:19:21.421Z,67.65
2023-01-21T16:21:32.435Z,67.42
2023-01-21T16:23:40.332Z,68.12
2023-01-21T16:25:48.154Z,68.12
2023-01-21T16:27:54.244Z,70.01
2023-01-21T16:30:06.631Z,68.72
2023-01-21T16:32:17.456Z,67.96
2023-01-21T16:34:32.175Z,68.81
2023-01-21T16:36:38.691Z,68.75
2023-01-21T16:38:43.477Z,68.71
2023-01-21T16:40:48.955Z,68.84
2023-01-21T16:43:12.211Z,69.18
2023-01-21T16:45:26.158Z,68.51
2023-01-21T16:47:36.346Z,68.45
2023-01-21T16:49:43.346Z,68.33
2023-01-21T16:51:57.638Z,68.06
2023-01-21T16:54:28.266Z,68.23
2023-01-21T16:56:30.945Z,68.21
2023-01-21T16:58:35.029Z,69.24
2023-01-21T17:00:37.619Z,68.46
2023-01-21T17:02:40.271Z,68.86
2023-01-21T17:04:43.040Z,68.48
2023-01-21T17:06:46.604Z,69.49
2023-01-21T17:08:54.553Z,69.29
2023-01-21T17:11:04.023Z,68.85
2023-01-21T17:13:14.248Z,68.44
2023-01-21T17:15:41.993Z,68.50
2023-01-21T17:17:45.396Z,68.29
2023-01-21T17:19:51.097Z,68.88
2023-01-21T17:21:58.399Z,69.43
2023-01-21T17:24:07.557Z,68.60
2023-01-21T17:26:33.589Z,68.34
2023-01-21T17:28:45.116Z,68.65
2023-01-21T17:30:47.930Z,69.07
2023-01-21T17:32:58.841Z,68.69
2023-01-21T17:35:14.678Z,67.82
2023-01-21T17:37:41.940Z,68.73
2023-01-21T17:39:48.361Z,68.66
2023-01-21T17:41:51.059Z,68.48
2023-01-21T17:43:55.976Z,68.99
2023-01-21T17:45:58.724Z,68.50
2023-01-21T17:48:10.117Z,68.86
2023-01-21T17:50:25.924Z,68.61
2023-01-21T17:52:29.246Z,68.70
2023-01-21T17:54:31.912Z,68.24
2023-01-21T17:56:53.428Z,68.39
2023-01-21T17:58:56.362Z,68.93
2023-01-21T18:01:02.412Z,68.89
2023-01-21T18:03:05.552Z,68.43
2023-01-21T18:05:08.474Z,68.92
2023-01-21T18:07:32.623Z,68.86
2023-01-21T18:09:35.526Z,68.81
2023-01-21T18:11:38.132Z,68.76
2023-01-21T18:13:40.765Z,68.88
2023-01-21T18:15:44.439Z,68.92
2023-01-21T18:17:51.290Z,69.26
2023-01-21T18:19:53.938Z,69.63
2023-01-21T18:21:57.139Z,69.19
2023-01-21T18:23:59.890Z,68.94
2023-01-21T18:26:03.700Z,68.95
2023-01-21T18:28:19.804Z,69.16
2023-01-21T18:30:28.386Z,69.14
2023-01-21T18:32:31.073Z,69.13
2023-01-21T18:34:33.708Z,68.98
2023-01-21T18:36:36.836Z,69.44
2023-01-21T18:38:39.929Z,68.76
2023-01-21T18:40:42.701Z,69.07
2023-01-21T18:42:46.830Z,68.96
2023-01-21T18:44:49.459Z,68.97
2023-01-21T18:46:52.256Z,68.61
2023-01-21T18:48:54.963Z,68.79
2023-01-21T18:50:57.758Z,69.21
2023-01-21T18:53:00.478Z,69.16
2023-01-21T18:55:03.153Z,68.66
2023-01-21T18:57:12.356Z,69.09
2023-01-21T18:59:17.401Z,68.86
2023-01-21T19:01:23.650Z,68.73
2023-01-21T19:03:26.896Z,68.92
2023-01-21T19:05:34.602Z,68.80
2023-01-21T19:07:37.336Z,69.18
2023-01-21T19:09:46.165Z,69.20
2023-01-21T19:11:49.519Z,69.48
2023-01-21T19:13:52.337Z,69.12
2023-01-21T19:15:55.020Z,69.54
2023-01-21T19:17:57.986Z,69.21
2023-01-21T19:20:01.065Z,69.51
2023-01-21T19:22:03.839Z,68.61
2023-01-21T19:24:09.312Z,68.76
2023-01-21T19:26:14.520Z,69.57
2023-01-21T19:28:17.277Z,69.30
2023-01-21T19:30:29.084Z,69.29
2023-01-21T19:32:31.826Z,69.63
2023-01-21T19:34:34.605Z,69.61
2023-01-21T19:36:38.252Z,69.17
2023-01-21T19:38:43.257Z,69.63
2023-01-21T19:40:47.541Z,69.35
2023-01-21T19:42:50.484Z,69.13
2023-01-21T19:44:53.186Z,70.13
2023-01-21T19:46:59.542Z,69.72
2023-01-21T19:49:11.617Z,69.27
2023-01-21T19:51:14.252Z,69.88
2023-01-21T19:53:18.462Z,69.84
2023-01-21T19:55:23.661Z,69.14
2023-01-21T19:57:26.332Z,69.59
2023-01-21T19:59:29.045Z,69.09
2023-01-21T20:01:31.971Z,70.30
2023-01-21T20:03:34.630Z,69.99
2023-01-21T20:05:37.421Z,69.36
2023-01-21T20:07:40.084Z,69.05
2023-01-21T20:09:42.985Z,68.81
2023-01-21T20:11:45.603Z,69.37
2023-01-21T20:13:48.270Z,69.15
2023-01-21T20:15:52.737Z,69.30
2023-01-21T20:17:57.792Z,69.49
2023-01-21T20:20:00.457Z,69.12
2023-01-21T20:22:03.212Z,69.35
2023-01-21T20:24:07.387Z,68.81
2023-01-21T20:26:16.977Z,69.24
2023-01-21T20:28:25.724Z,69.19
2023-01-21T20:30:32.039Z,68.87
2023-01-21T20:32:35.192Z,69.11
2023-01-21T20:34:39.026Z,68.96
2023-01-21T20:36:41.963Z,69.06
2023-01-21T20:38:45.169Z,69.03
2023-01-21T20:40:48.621Z,68.94
2023-01-21T20:42:53.033Z,69.52
2023-01-21T20:44:56.696Z,68.96
2023-01-21T20:47:01.609Z,69.04
2023-01-21T20:49:04.353Z,68.63
2023-01-21T20:51:07.843Z,68.79
2023-01-21T20:53:11.831Z,68.78
2023-01-21T20:55:16.490Z,68.97
2023-01-21T20:57:20.508Z,68.86
2023-01-21T20:59:23.530Z,68.60
2023-01-21T21:01:27.769Z,68.62
2023-01-21T21:03:30.823Z,68.08
2023-01-21T21:05:33.731Z,68.48
2023-01-21T21:07:36.892Z,68.66
2023-01-21T21:09:40.019Z,68.86
2023-01-21T21:11:42.693Z,68.01
2023-01-21T21:13:48.518Z,68.19
2023-01-21T21:15:52.011Z,68.45
2023-01-21T21:17:55.075Z,68.77
2023-01-21T21:19:57.683Z,68.61
2023-01-21T21:22:00.271Z,68.86
2023-01-21T21:24:06.646Z,68.51
2023-01-21T21:26:23.232Z,68.42
2023-01-21T21:28:25.950Z,68.49
2023-01-21T21:30:31.315Z,68.38
2023-01-21T21:32:34.349Z,68.60
2023-01-21T21:34:37.104Z,68.19
2023-01-21T21:36:42.479Z,68.09
2023-01-21T21:38:46.254Z,68.00
2023-01-21T21:40:53.315Z,68.85
2023-01-21T21:43:15.714Z,68.67
2023-01-21T21:45:18.758Z,68.22
2023-01-21T21:47:39.994Z,67.97
2023-01-21T21:49:42.611Z,67.99
2023-01-21T21:51:46.013Z,67.92
2023-01-21T21:53:49.033Z,67.86
2023-01-21T21:55:51.752Z,67.43
2023-01-21T21:57:54.346Z,67.35
2023-01-21T21:59:56.907Z,67.14
2023-01-21T22:02:00.961Z,67.59
2023-01-21T22:04:04.645Z,67.04
2023-01-21T22:06:07.824Z,67.58
2023-01-21T22:08:11.764Z,67.06
2023-01-21T22:10:14.453Z,67.04
2023-01-21T22:12:17.132Z,67.08
2023-01-21T22:14:19.757Z,67.05
2023-01-21T22:16:25.490Z,67.42
2023-01-21T22:18:30.129Z,67.04
2023-01-21T22:20:32.730Z,67.24
2023-01-21T22:22:35.440Z,66.82
2023-01-21T22:24:38.076Z,67.46
2023-01-21T22:26:40.788Z,66.90
2023-01-21T22:28:44.208Z,67.02
2023-01-21T22:30:46.859Z,66.64
2023-01-21T22:32:49.549Z,66.88
2023-01-21T22:34:52.267Z,66.71
2023-01-21T22:36:54.897Z,66.61
2023-01-21T22:38:58.067Z,66.21
2023-01-21T22:41:01.537Z,66.35
2023-01-21T22:43:04.403Z,66.48
2023-01-21T22:45:07.736Z,66.22
2023-01-21T22:47:10.970Z,66.73
2023-01-21T22:49:13.935Z,66.55
2023-01-21T22:51:18.879Z,66.07
2023-01-21T22:53:22.733Z,66.42
2023-01-21T22:55:25.461Z,66.52
2023-01-21T22:57:28.132Z,66.52
2023-01-21T22:59:32.087Z,66.64
2023-01-21T23:01:36.683Z,66.68
2023-01-21T23:03:39.405Z,66.02
2023-01-21T23:05:42.011Z,66.62
2023-01-21T23:07:44.667Z,66.92
2023-01-21T23:09:47.280Z,66.42
2023-01-21T23:11:52.726Z,66.53
2023-01-21T23:13:55.504Z,66.57
2023-01-21T23:15:58.256Z,66.81
2023-01-21T23:18:01.026Z,66.72
2023-01-21T23:20:04.563Z,67.34
2023-01-21T23:22:08.575Z,66.92
2023-01-21T23:24:11.267Z,67.09
2023-01-21T23:26:14.511Z,67.18
2023-01-21T23:28:17.916Z,67.09
2023-01-21T23:30:20.623Z,67.19
2023-01-21T23:32:23.309Z,66.85
2023-01-21T23:34:25.894Z,67.05
2023-01-21T23:36:28.640Z,66.59
2023-01-21T23:38:31.387Z,67.00
2023-01-21T23:40:34.047Z,66.94
2023-01-21T23:42:36.678Z,67.08
2023-01-21T23:44:39.356Z,66.69
2023-01-21T23:46:43.790Z,67.20
2023-01-21T23:48:46.579Z,67.14
2023-01-21T23:50:49.454Z,66.65
2023-01-21T23:52:52.169Z,66.58
2023-01-21T23:54:55.180Z,66.69
2023-01-21T23:56:57.827Z,67.28
2023-01-21T23:59:00.491Z,66.35
